Time;durP1;ratioP1;P1;durP2;ratioP2;P2;SDS_P1;SDS_P2;PMS_P1;PMS_P2;Temp;Humidity;BMP_temperature;BMP_pressure;BME280_temperature;BME280_humidity;BME280_pressure;Samples;Min_cycle;Max_cycle;Signal;HPM_P1;HPM_P2
2023/03/26 00:02:32;;;;;;;4.00;3.60;;;7.40;99.90;;;;;;6329481;28;20460;-62
2023/03/26 00:05:36;;;;;;;4.00;3.27;;;7.40;99.90;;;;;;6328914;28;20992;-62
2023/03/26 00:08:41;;;;;;;3.43;3.13;;;7.30;99.90;;;;;;6329331;28;20492;-62
2023/03/26 00:11:46;;;;;;;3.57;3.27;;;7.30;99.90;;;;;;6329148;28;20547;-62
2023/03/26 00:14:50;;;;;;;3.87;2.80;;;7.20;99.90;;;;;;6328981;28;20470;-62
2023/03/26 00:17:55;;;;;;;3.77;3.47;;;7.20;99.90;;;;;;6328722;28;20479;-62
2023/03/26 00:21:00;;;;;;;4.60;3.40;;;7.10;99.90;;;;;;6329198;28;20472;-62
2023/03/26 00:24:05;;;;;;;3.07;2.77;;;7.10;99.90;;;;;;6328830;28;20468;-61
2023/03/26 00:27:08;;;;;;;8.63;3.30;;;7.10;99.90;;;;;;6329755;28;20487;-62
2023/03/26 00:30:12;;;;;;;3.30;2.80;;;7.10;99.90;;;;;;6329564;28;20475;-62
2023/03/26 00:33:17;;;;;;;3.60;3.13;;;7.00;99.90;;;;;;6328486;28;20965;-61
2023/03/26 00:36:21;;;;;;;6.27;3.80;;;7.10;99.90;;;;;;6328176;28;20475;-61
2023/03/26 00:39:24;;;;;;;3.07;2.50;;;7.00;99.90;;;;;;6328098;28;20921;-62
2023/03/26 00:42:29;;;;;;;3.13;2.93;;;7.00;99.90;;;;;;6328274;28;20474;-62
2023/03/26 00:45:32;;;;;;;2.33;2.23;;;7.00;99.90;;;;;;6328180;28;20483;-61
2023/03/26 00:48:37;;;;;;;3.33;3.00;;;7.00;99.90;;;;;;6328538;28;20472;-62
2023/03/26 00:51:47;;;;;;;2.70;2.50;;;6.90;99.90;;;;;;6327851;28;20479;-61
2023/03/26 00:54:52;;;;;;;2.70;2.40;;;6.90;99.90;;;;;;6327720;28;20467;-61
2023/03/26 00:57:55;;;;;;;3.33;3.03;;;6.90;99.90;;;;;;6327954;28;20836;-61
2023/03/26 01:01:01;;;;;;;3.90;2.77;;;6.90;99.90;;;;;;6327772;28;20467;-61
2023/03/26 01:04:29;;;;;;;3.03;2.73;;;6.80;99.90;;;;;;6327606;28;21282;-61
2023/03/26 01:07:34;;;;;;;2.33;2.23;;;6.90;99.90;;;;;;6327423;28;20459;-62
2023/03/26 01:10:37;;;;;;;3.20;2.90;;;6.80;99.90;;;;;;6326634;28;20542;-61
2023/03/26 01:13:46;;;;;;;3.20;2.40;;;6.80;99.90;;;;;;6327646;28;20605;-61
2023/03/26 01:16:52;;;;;;;3.23;2.17;;;6.70;99.90;;;;;;6327931;28;20475;-61
2023/03/26 01:20:09;;;;;;;3.60;3.10;;;6.80;99.90;;;;;;6327480;28;20472;-61
2023/03/26 01:23:20;;;;;;;2.87;2.57;;;6.70;99.90;;;;;;6327241;28;20491;-61
2023/03/26 01:26:43;;;;;;;3.23;3.03;;;6.70;99.90;;;;;;6327356;28;20464;-61
2023/03/26 01:29:54;;;;;;;2.60;2.40;;;6.60;99.90;;;;;;6326959;28;20468;-61
2023/03/26 01:33:04;;;;;;;2.80;2.60;;;6.60;99.90;;;;;;6327279;28;20472;-61
2023/03/26 01:36:15;;;;;;;4.77;3.13;;;6.50;99.90;;;;;;6326677;28;20958;-61
2023/03/26 01:39:28;;;;;;;4.90;2.97;;;6.50;99.90;;;;;;6326720;28;20992;-61
2023/03/26 01:42:37;;;;;;;3.90;2.70;;;6.50;99.90;;;;;;6327031;28;20468;-61
2023/03/26 01:45:44;;;;;;;5.57;4.10;;;6.40;99.90;;;;;;6326875;28;20477;-61
2023/03/26 01:48:49;;;;;;;2.87;2.67;;;6.30;99.90;;;;;;6326644;28;20475;-61
2023/03/26 01:51:54;;;;;;;2.57;2.37;;;6.30;99.90;;;;;;6326423;28;20800;-61
2023/03/26 01:54:58;;;;;;;4.03;2.30;;;6.30;99.90;;;;;;6326408;28;20492;-61
2023/03/26 01:58:08;;;;;;;3.37;2.37;;;6.20;99.90;;;;;;6326462;28;20961;-61
2023/03/26 02:01:23;;;;;;;2.93;2.70;;;6.00;99.90;;;;;;6326352;28;20456;-61
2023/03/26 02:04:32;;;;;;;2.30;2.13;;;6.10;99.90;;;;;;6326581;28;20417;-61
2023/03/26 02:07:43;;;;;;;4.00;3.00;;;6.10;99.90;;;;;;6326372;28;20472;-61
2023/03/26 02:10:50;;;;;;;6.33;3.43;;;6.00;99.90;;;;;;6326498;28;20464;-61
2023/03/26 02:13:54;;;;;;;4.70;3.27;;;5.80;99.90;;;;;;6326481;28;20483;-61
2023/03/26 02:16:58;;;;;;;7.23;4.27;;;5.70;99.90;;;;;;6325869;28;20483;-61
2023/03/26 02:20:09;;;;;;;13.37;5.57;;;5.40;99.90;;;;;;6325903;28;20910;-61
2023/03/26 02:23:12;;;;;;;23.47;7.33;;;5.10;99.90;;;;;;6325666;28;20475;-61
2023/03/26 02:26:18;;;;;;;13.77;6.10;;;5.10;99.90;;;;;;6325816;28;20499;-61
2023/03/26 02:29:22;;;;;;;36.40;7.80;;;5.20;99.90;;;;;;6326165;28;20468;-61
2023/03/26 02:32:25;;;;;;;14.33;6.57;;;5.20;99.90;;;;;;6325559;28;20468;-61
2023/03/26 02:35:31;;;;;;;11.63;7.17;;;5.30;99.90;;;;;;6325879;28;20471;-61
2023/03/26 02:38:35;;;;;;;7.43;6.57;;;5.20;99.90;;;;;;6325569;28;20468;-61
2023/03/26 02:41:38;;;;;;;9.00;6.43;;;5.40;99.90;;;;;;6325918;28;20480;-61
2023/03/26 02:44:43;;;;;;;6.43;5.83;;;5.40;99.90;;;;;;6325643;28;20479;-61
2023/03/26 02:47:46;;;;;;;6.70;6.10;;;5.50;99.90;;;;;;6325475;28;20472;-62
2023/03/26 02:50:52;;;;;;;6.10;5.53;;;5.60;99.90;;;;;;6321834;28;20488;-62
2023/03/26 02:53:56;;;;;;;5.83;5.33;;;5.60;99.90;;;;;;6307426;28;20465;-61
2023/03/26 02:56:59;;;;;;;5.50;5.00;;;5.60;99.90;;;;;;6300119;28;20530;-62
2023/03/26 03:00:12;;;;;;;6.60;6.00;;;5.60;99.90;;;;;;6299926;28;20563;-62
2023/03/26 03:03:17;;;;;;;6.07;5.57;;;5.70;99.90;;;;;;6299803;28;20799;-62
2023/03/26 03:06:20;;;;;;;5.63;5.13;;;5.70;99.90;;;;;;6306659;28;20466;-62
2023/03/26 03:09:24;;;;;;;7.30;4.60;;;5.80;99.90;;;;;;6299570;28;20490;-62
2023/03/26 03:12:28;;;;;;;5.43;4.80;;;5.80;99.90;;;;;;6299568;28;20473;-62
2023/03/26 03:15:32;;;;;;;4.60;4.20;;;5.80;99.90;;;;;;6310329;28;20972;-62
2023/03/26 03:18:36;;;;;;;4.77;4.20;;;5.70;99.90;;;;;;6310990;28;20460;-62
2023/03/26 03:21:40;;;;;;;4.90;4.50;;;5.70;99.90;;;;;;6324405;28;20470;-62
2023/03/26 03:24:43;;;;;;;4.57;4.17;;;5.70;99.90;;;;;;6324375;28;20491;-62
2023/03/26 03:27:46;;;;;;;4.47;4.10;;;5.70;99.90;;;;;;6324627;28;20480;-62
2023/03/26 03:30:52;;;;;;;4.23;3.93;;;5.60;99.90;;;;;;6322952;28;20467;-62
2023/03/26 03:33:55;;;;;;;6.87;4.40;;;5.60;99.90;;;;;;6310432;28;20547;-62
2023/03/26 03:36:58;;;;;;;4.23;3.90;;;5.70;99.90;;;;;;6310518;28;20483;-62
2023/03/26 03:40:04;;;;;;;4.80;4.50;;;5.70;99.90;;;;;;6312179;28;20473;-62
2023/03/26 03:43:07;;;;;;;4.20;3.90;;;5.60;99.90;;;;;;6309516;28;20473;-62
2023/03/26 03:46:12;;;;;;;4.07;3.77;;;5.60;99.90;;;;;;6309317;28;20891;-62
2023/03/26 03:49:15;;;;;;;4.40;3.63;;;5.60;99.90;;;;;;6310885;28;20436;-62
2023/03/26 03:52:18;;;;;;;3.40;3.20;;;5.60;99.90;;;;;;6309781;28;20478;-63
2023/03/26 03:55:22;;;;;;;4.20;3.83;;;5.60;99.90;;;;;;6311622;28;20479;-63
2023/03/26 03:58:29;;;;;;;3.43;3.23;;;5.50;99.90;;;;;;6312891;28;20529;-63
2023/03/26 04:01:34;;;;;;;4.03;3.73;;;5.50;99.90;;;;;;6310215;28;20817;-63
2023/03/26 04:04:38;;;;;;;3.50;3.20;;;5.40;99.90;;;;;;6310724;28;20457;-63
2023/03/26 04:07:42;;;;;;;4.30;4.00;;;5.40;99.90;;;;;;6312628;28;20602;-62
2023/03/26 04:10:45;;;;;;;3.60;2.73;;;5.40;99.90;;;;;;6314814;28;20533;-62
2023/03/26 04:13:49;;;;;;;3.47;3.17;;;5.40;99.90;;;;;;6311494;28;20472;-63
2023/03/26 04:16:54;;;;;;;4.37;3.87;;;5.40;99.90;;;;;;6309328;28;20472;-63
2023/03/26 04:20:04;;;;;;;5.13;4.00;;;5.30;99.90;;;;;;6309714;28;20462;-63
2023/03/26 04:23:12;;;;;;;3.43;3.03;;;5.30;99.90;;;;;;6312125;28;20469;-62
2023/03/26 04:26:18;;;;;;;2.97;2.77;;;5.30;99.90;;;;;;6309470;28;20477;-62
2023/03/26 04:29:26;;;;;;;4.40;3.70;;;5.30;99.90;;;;;;6308959;28;20462;-62
2023/03/26 04:32:33;;;;;;;3.47;3.10;;;5.40;99.90;;;;;;6312016;28;20502;-63
2023/03/26 04:35:36;;;;;;;3.00;2.60;;;5.40;99.90;;;;;;6303011;28;20502;-63
2023/03/26 04:38:42;;;;;;;3.90;3.37;;;5.40;99.90;;;;;;6320882;28;20529;-62
2023/03/26 04:41:45;;;;;;;4.07;2.80;;;5.40;99.90;;;;;;6323568;28;20472;-63
2023/03/26 04:44:49;;;;;;;3.83;2.80;;;5.40;99.90;;;;;;6325109;28;20544;-62
2023/03/26 04:47:54;;;;;;;3.50;3.20;;;5.40;99.90;;;;;;6328390;28;20476;-63
2023/03/26 04:50:58;;;;;;;4.10;3.40;;;5.40;99.90;;;;;;6328097;28;20479;-63
2023/03/26 04:54:02;;;;;;;4.27;3.83;;;5.40;99.90;;;;;;6327661;28;20471;-63
2023/03/26 04:57:09;;;;;;;3.20;2.90;;;5.40;99.90;;;;;;6327881;28;20472;-63
2023/03/26 05:00:17;;;;;;;3.27;3.03;;;5.40;99.90;;;;;;6327907;28;20984;-63
2023/03/26 05:03:22;;;;;;;2.53;2.40;;;5.40;99.90;;;;;;6327944;28;20499;-62
2023/03/26 05:06:27;;;;;;;3.90;3.10;;;5.40;99.90;;;;;;6327596;28;20487;-63
2023/03/26 05:09:30;;;;;;;3.17;2.97;;;5.40;99.90;;;;;;6327708;28;20821;-62
2023/03/26 05:12:33;;;;;;;5.70;4.63;;;5.40;99.90;;;;;;6335518;28;20472;-63
2023/03/26 05:15:37;;;;;;;5.20;4.70;;;5.40;99.90;;;;;;6334947;28;20476;-62
2023/03/26 05:18:41;;;;;;;4.47;4.00;;;5.40;99.90;;;;;;6328906;28;20468;-61
2023/03/26 05:21:45;;;;;;;4.00;3.70;;;5.40;99.90;;;;;;6327938;28;20468;-62
2023/03/26 05:24:48;;;;;;;4.63;3.80;;;5.40;99.90;;;;;;6327494;28;20468;-61
2023/03/26 05:27:51;;;;;;;3.63;3.07;;;5.50;99.90;;;;;;6327140;28;20475;-61
2023/03/26 05:30:54;;;;;;;3.27;3.07;;;5.60;99.90;;;;;;6327350;28;20468;-62
2023/03/26 05:34:00;;;;;;;4.67;2.80;;;5.70;99.90;;;;;;6326773;28;20984;-62
2023/03/26 05:37:05;;;;;;;3.20;2.90;;;5.80;99.90;;;;;;6327177;28;20959;-62
2023/03/26 05:40:11;;;;;;;3.43;3.13;;;5.90;99.90;;;;;;6322635;28;20983;-62
2023/03/26 05:43:14;;;;;;;5.33;4.80;;;5.90;99.90;;;;;;6327480;28;20437;-62
2023/03/26 05:46:19;;;;;;;7.50;6.80;;;5.90;99.90;;;;;;6326880;28;20932;-62
2023/03/26 05:49:23;;;;;;;6.43;5.93;;;6.00;99.90;;;;;;6326576;28;20476;-62
2023/03/26 05:52:27;;;;;;;5.60;5.20;;;6.10;99.90;;;;;;6326711;28;20920;-63
2023/03/26 05:55:32;;;;;;;8.20;4.57;;;6.10;99.90;;;;;;6326331;28;20476;-62
2023/03/26 05:58:36;;;;;;;5.80;3.80;;;6.20;99.90;;;;;;6326254;28;20452;-62
2023/03/26 06:01:43;;;;;;;4.43;3.00;;;6.30;99.90;;;;;;6326330;28;20953;-63
2023/03/26 06:04:49;;;;;;;4.30;3.90;;;6.30;99.90;;;;;;6326270;28;20475;-63
2023/03/26 06:07:53;;;;;;;4.23;3.33;;;6.40;99.90;;;;;;6326470;28;20552;-62
2023/03/26 06:11:01;;;;;;;4.00;3.70;;;6.50;99.90;;;;;;6326168;28;20464;-62
2023/03/26 06:14:04;;;;;;;5.17;4.67;;;6.80;99.90;;;;;;6326450;28;20471;-62
2023/03/26 06:17:07;;;;;;;4.80;4.20;;;6.70;99.90;;;;;;6326259;28;20966;-62
2023/03/26 06:20:13;;;;;;;4.47;4.07;;;6.80;99.90;;;;;;6326358;28;20978;-62
2023/03/26 06:23:16;;;;;;;6.90;4.80;;;6.80;99.90;;;;;;6326119;28;20472;-62
2023/03/26 06:26:20;;;;;;;5.20;4.50;;;6.70;99.90;;;;;;6325639;28;20479;-63
2023/03/26 06:29:23;;;;;;;6.27;5.30;;;6.80;99.90;;;;;;6325507;28;20968;-62
2023/03/26 06:32:26;;;;;;;5.47;4.13;;;6.90;99.90;;;;;;6325843;28;20483;-62
2023/03/26 06:35:31;;;;;;;4.97;4.13;;;7.20;99.90;;;;;;6325794;28;20479;-62
2023/03/26 06:38:35;;;;;;;4.80;4.40;;;7.40;99.90;;;;;;6325680;28;20461;-62
2023/03/26 06:41:38;;;;;;;4.63;4.23;;;7.50;99.90;;;;;;6321242;28;20464;-62
2023/03/26 06:44:41;;;;;;;5.40;4.57;;;7.70;99.90;;;;;;6325260;28;20921;-62
2023/03/26 06:47:44;;;;;;;5.57;5.10;;;8.00;99.90;;;;;;6325263;28;20487;-63
2023/03/26 06:50:49;;;;;;;4.90;4.43;;;8.80;99.90;;;;;;6325087;28;20483;-63
2023/03/26 06:53:52;;;;;;;5.70;4.40;;;9.60;99.90;;;;;;6325241;28;20480;-63
2023/03/26 06:56:57;;;;;;;4.20;3.90;;;9.90;99.90;;;;;;6325037;28;20479;-63
2023/03/26 07:00:00;;;;;;;5.07;4.67;;;10.00;99.90;;;;;;6325079;28;20472;-62
2023/03/26 07:03:04;;;;;;;4.83;4.20;;;9.90;99.90;;;;;;6325633;28;20479;-64
2023/03/26 07:06:10;;;;;;;5.97;5.37;;;9.70;99.90;;;;;;6325025;28;20468;-64
2023/03/26 07:09:13;;;;;;;5.57;5.03;;;9.30;99.90;;;;;;6324137;28;20476;-64
2023/03/26 07:12:17;;;;;;;5.20;4.80;;;9.10;99.90;;;;;;6324811;28;20468;-64
2023/03/26 07:15:20;;;;;;;5.80;5.30;;;9.00;99.90;;;;;;6324235;28;20484;-63
2023/03/26 07:18:23;;;;;;;5.70;4.93;;;8.90;99.90;;;;;;6324473;28;21131;-64
2023/03/26 07:21:28;;;;;;;6.60;6.00;;;9.10;99.90;;;;;;6324541;28;20471;-65
2023/03/26 07:24:32;;;;;;;7.40;4.80;;;9.60;99.90;;;;;;6324765;28;20483;-64
2023/03/26 07:27:46;;;;;;;4.53;4.13;;;10.40;99.90;;;;;;6324630;28;20468;-64
2023/03/26 07:30:59;;;;;;;6.80;6.10;;;11.10;99.70;;;;;;6324312;28;20480;-65
2023/03/26 07:34:09;;;;;;;5.13;4.20;;;11.70;98.30;;;;;;6324912;28;20479;-65
2023/03/26 07:37:32;;;;;;;5.10;4.23;;;11.90;97.10;;;;;;6324931;28;20917;-65
2023/03/26 07:40:53;;;;;;;3.40;3.10;;;11.80;96.10;;;;;;6324808;28;20463;-64
2023/03/26 07:44:10;;;;;;;3.77;3.47;;;11.80;96.00;;;;;;6320626;28;20468;-64
2023/03/26 07:47:24;;;;;;;5.13;3.33;;;11.80;96.10;;;;;;6324504;28;20950;-64
2023/03/26 07:50:28;;;;;;;3.60;3.30;;;11.80;95.90;;;;;;6324496;28;20518;-64
2023/03/26 07:53:33;;;;;;;4.13;3.73;;;11.70;95.70;;;;;;6324388;28;20460;-64
2023/03/26 07:56:41;;;;;;;5.97;3.70;;;11.50;96.20;;;;;;6324082;28;20809;-64
2023/03/26 07:59:50;;;;;;;4.47;4.07;;;11.60;96.50;;;;;;6323880;28;20476;-64
2023/03/26 08:03:23;;;;;;;5.07;3.93;;;11.50;96.60;;;;;;6323923;28;20472;-64
2023/03/26 08:06:34;;;;;;;4.37;3.23;;;11.60;96.80;;;;;;6321269;28;20916;-64
2023/03/26 08:09:57;;;;;;;3.57;3.27;;;11.70;96.80;;;;;;6324485;28;20575;-64
2023/03/26 08:13:16;;;;;;;4.73;3.50;;;11.60;96.70;;;;;;6323882;28;20484;-65
2023/03/26 08:16:25;;;;;;;4.67;4.27;;;11.60;96.70;;;;;;6323936;28;20467;-64
2023/03/26 08:19:41;;;;;;;3.97;2.97;;;11.50;96.70;;;;;;6325029;28;20441;-65
2023/03/26 08:22:50;;;;;;;2.47;2.27;;;11.50;96.70;;;;;;6329482;28;20485;-65
2023/03/26 08:26:01;;;;;;;5.17;2.80;;;11.40;95.10;;;;;;6328924;28;20479;-65
2023/03/26 08:29:17;;;;;;;4.97;2.90;;;11.30;94.70;;;;;;6329074;28;20483;-65
2023/03/26 08:32:21;;;;;;;3.63;2.83;;;11.20;94.90;;;;;;6329317;28;20467;-65
2023/03/26 08:35:26;;;;;;;5.83;2.53;;;11.30;94.70;;;;;;6328786;28;20476;-65
2023/03/26 08:38:29;;;;;;;2.83;2.63;;;11.30;94.60;;;;;;6329178;28;20774;-64
2023/03/26 08:42:16;;;;;;;3.07;2.77;;;11.30;94.50;;;;;;6328867;28;20953;-65
2023/03/26 08:45:52;;;;;;;3.53;2.73;;;11.20;94.20;;;;;;6328457;28;20957;-64
2023/03/26 08:49:23;;;;;;;4.40;2.80;;;11.20;94.50;;;;;;6308419;28;20511;-65
2023/03/26 08:53:00;;;;;;;2.50;2.30;;;11.20;94.20;;;;;;6326635;28;20464;-65
2023/03/26 08:56:12;;;;;;;3.20;2.90;;;11.20;94.00;;;;;;6328355;28;20483;-65
2023/03/26 08:59:55;;;;;;;3.33;2.57;;;11.40;94.20;;;;;;6328851;28;20468;-66
2023/03/26 09:03:17;;;;;;;3.03;2.83;;;11.60;94.30;;;;;;6327848;28;20487;-64
2023/03/26 09:07:29;;;;;;;4.57;3.50;;;11.90;94.30;;;;;;6328479;28;20472;-65
2023/03/26 09:10:51;;;;;;;4.53;3.10;;;12.20;93.80;;;;;;6327673;28;20487;-64
2023/03/26 09:14:26;;;;;;;6.40;3.90;;;12.50;92.80;;;;;;6327950;28;20811;-64
2023/03/26 09:18:13;;;;;;;3.73;3.23;;;12.60;92.30;;;;;;6327707;28;20479;-64
2023/03/26 09:21:46;;;;;;;7.30;3.10;;;12.60;92.90;;;;;;6327413;28;20806;-64
2023/03/26 09:25:26;;;;;;;5.77;3.10;;;12.90;92.50;;;;;;6310906;28;20968;-65
2023/03/26 09:29:04;;;;;;;4.93;2.83;;;13.40;91.60;;;;;;6327703;28;20473;-65
2023/03/26 09:32:41;;;;;;;2.80;2.57;;;14.00;90.30;;;;;;6326343;28;20469;-65
2023/03/26 09:36:14;;;;;;;3.70;2.63;;;14.60;88.80;;;;;;6327374;28;20500;-64
2023/03/26 09:39:30;;;;;;;7.13;3.90;;;15.30;86.80;;;;;;6327385;28;20821;-66
2023/03/26 09:42:43;;;;;;;4.37;3.40;;;15.90;84.40;;;;;;6327322;28;20499;-65
2023/03/26 09:46:05;;;;;;;3.37;2.77;;;16.70;81.60;;;;;;6326981;28;20785;-64
2023/03/26 09:49:29;;;;;;;2.53;2.33;;;17.10;74.50;;;;;;6326803;28;20473;-65
2023/03/26 09:53:00;;;;;;;3.07;2.67;;;17.20;71.40;;;;;;6317618;28;20947;-65
2023/03/26 09:56:16;;;;;;;4.60;2.50;;;17.10;70.10;;;;;;6326860;28;20827;-64
2023/03/26 09:59:43;;;;;;;2.00;1.53;;;17.10;69.10;;;;;;6326566;28;20987;-64
2023/03/26 10:03:28;;;;;;;2.57;2.10;;;17.00;67.50;;;;;;6304133;28;20469;-64
2023/03/26 10:06:50;;;;;;;5.43;2.30;;;17.10;67.30;;;;;;6298562;28;20473;-65
2023/03/26 10:10:01;;;;;;;5.60;2.83;;;17.20;66.70;;;;;;6314428;28;20581;-66
2023/03/26 10:13:12;;;;;;;2.70;2.23;;;17.10;66.50;;;;;;6312912;28;20929;-66
2023/03/26 10:16:24;;;;;;;3.80;2.07;;;16.90;66.80;;;;;;6311763;28;20460;-64
2023/03/26 10:19:43;;;;;;;3.30;2.10;;;16.30;67.10;;;;;;6314159;28;20436;-65
2023/03/26 10:23:01;;;;;;;1.90;1.80;;;16.20;68.20;;;;;;6312335;28;20465;-66
2023/03/26 10:26:24;;;;;;;3.13;2.10;;;16.10;67.40;;;;;;6319163;28;20470;-65
2023/03/26 10:29:54;;;;;;;3.00;1.90;;;16.20;67.30;;;;;;6316794;28;20566;-65
2023/03/26 10:33:13;;;;;;;5.03;2.47;;;16.40;68.10;;;;;;6306590;28;20802;-65
2023/03/26 10:36:28;;;;;;;3.10;2.77;;;17.20;66.80;;;;;;6318171;28;20476;-65
2023/03/26 10:40:06;;;;;;;6.07;2.63;;;18.00;66.00;;;;;;6325612;28;20475;-64
2023/03/26 10:43:27;;;;;;;2.80;2.50;;;19.30;62.40;;;;;;6325908;28;20248;-65
2023/03/26 10:46:51;;;;;;;2.00;1.90;;;20.10;59.70;;;;;;6326482;28;20237;-65
2023/03/26 10:50:19;;;;;;;2.27;2.00;;;20.10;57.10;;;;;;6325886;28;20553;-65
2023/03/26 10:53:36;;;;;;;2.90;2.70;;;20.20;56.40;;;;;;6325674;28;20230;-66
2023/03/26 10:56:43;;;;;;;2.60;2.40;;;19.90;56.10;;;;;;6320943;28;20245;-64
2023/03/26 10:59:48;;;;;;;3.13;2.93;;;19.60;57.00;;;;;;6325214;28;20234;-64
2023/03/26 11:03:08;;;;;;;2.87;2.67;;;19.30;57.20;;;;;;6325565;28;20241;-65
2023/03/26 11:06:24;;;;;;;2.77;2.50;;;19.40;57.20;;;;;;6325454;28;20249;-65
2023/03/26 11:09:36;;;;;;;2.87;2.67;;;19.20;57.90;;;;;;6324866;28;20238;-64
2023/03/26 11:12:44;;;;;;;2.17;2.00;;;19.60;57.60;;;;;;6325092;28;20708;-65
2023/03/26 11:15:56;;;;;;;2.63;2.43;;;19.80;57.00;;;;;;6325523;28;20230;-64
2023/03/26 11:19:05;;;;;;;4.80;2.77;;;19.50;56.90;;;;;;6324940;28;20226;-65
2023/03/26 11:22:19;;;;;;;2.90;2.70;;;20.10;56.90;;;;;;6324719;28;20226;-65
2023/03/26 11:25:47;;;;;;;3.07;2.87;;;20.60;55.00;;;;;;6324739;28;20222;-65
2023/03/26 11:29:05;;;;;;;3.20;2.77;;;20.90;53.80;;;;;;6321192;28;20233;-65
2023/03/26 11:32:39;;;;;;;2.63;2.43;;;21.20;53.20;;;;;;6317270;28;20233;-65
2023/03/26 11:35:47;;;;;;;2.50;2.30;;;21.50;52.40;;;;;;6304577;28;20568;-65
2023/03/26 11:38:53;;;;;;;3.70;2.30;;;21.60;52.30;;;;;;6299531;28;20229;-65
2023/03/26 11:42:09;;;;;;;3.13;2.83;;;21.80;51.80;;;;;;6299528;28;20230;-66
2023/03/26 11:45:18;;;;;;;2.90;2.70;;;22.20;51.20;;;;;;6304748;28;20239;-66
2023/03/26 11:48:30;;;;;;;3.10;2.90;;;22.60;50.40;;;;;;6311538;28;20595;-64
2023/03/26 11:51:36;;;;;;;3.40;3.10;;;22.60;49.40;;;;;;6313237;28;20225;-65
2023/03/26 11:54:39;;;;;;;3.20;2.80;;;22.80;49.10;;;;;;6309701;28;20301;-65
2023/03/26 11:57:50;;;;;;;5.03;3.07;;;22.80;48.00;;;;;;6311111;28;20241;-66
2023/03/26 12:00:55;;;;;;;3.20;3.00;;;23.00;47.80;;;;;;6309850;28;20318;-65
2023/03/26 12:04:06;;;;;;;3.20;2.80;;;22.90;47.40;;;;;;6310956;28;20261;-65
2023/03/26 12:07:16;;;;;;;2.93;2.43;;;22.80;47.30;;;;;;6310937;28;20232;-65
2023/03/26 12:10:26;;;;;;;3.40;3.10;;;22.60;47.10;;;;;;6313124;28;20656;-65
2023/03/26 12:13:35;;;;;;;3.83;3.40;;;22.60;47.90;;;;;;6312084;28;20192;-65
2023/03/26 12:16:38;;;;;;;3.17;2.97;;;22.40;47.80;;;;;;6312962;28;20687;-65
2023/03/26 12:19:45;;;;;;;4.20;3.80;;;22.30;48.50;;;;;;6309853;28;20218;-65
2023/03/26 12:22:50;;;;;;;3.50;3.20;;;22.10;49.70;;;;;;6311855;28;20229;-65
2023/03/26 12:26:10;;;;;;;3.40;3.20;;;21.30;50.40;;;;;;6310194;28;20219;-64
2023/03/26 12:29:16;;;;;;;4.13;3.30;;;21.40;50.80;;;;;;6312772;28;20232;-65
2023/03/26 12:32:20;;;;;;;4.00;3.70;;;20.80;51.90;;;;;;6309575;28;20300;-64
2023/03/26 12:35:31;;;;;;;3.87;3.57;;;21.00;52.20;;;;;;6311014;28;20355;-65
2023/03/26 12:38:36;;;;;;;4.60;3.13;;;21.20;51.70;;;;;;6312396;28;20214;-65
2023/03/26 12:41:41;;;;;;;5.57;4.47;;;21.30;51.70;;;;;;6310314;28;20230;-65
2023/03/26 12:45:07;;;;;;;25.73;21.37;;;21.30;51.90;;;;;;6308754;28;20231;-65
2023/03/26 12:48:14;;;;;;;6.00;5.47;;;20.70;53.30;;;;;;6298472;28;20318;-65
2023/03/26 12:51:39;;;;;;;4.00;3.70;;;20.70;53.60;;;;;;6309302;28;20364;-64
2023/03/26 12:54:48;;;;;;;14.20;12.80;;;20.80;53.80;;;;;;6310955;28;20219;-64
2023/03/26 12:58:01;;;;;;;13.60;10.30;;;21.10;54.10;;;;;;6311999;28;20228;-65
2023/03/26 13:01:25;;;;;;;8.93;8.03;;;21.40;53.90;;;;;;6310319;28;20219;-65
2023/03/26 13:04:48;;;;;;;17.63;15.90;;;21.70;52.80;;;;;;6302656;28;20648;-65
2023/03/26 13:08:29;;;;;;;6.67;6.07;;;20.90;53.70;;;;;;6315310;28;20276;-65
2023/03/26 13:11:42;;;;;;;3.90;3.40;;;20.80;54.30;;;;;;6314515;28;20237;-65
2023/03/26 13:15:08;;;;;;;5.17;3.70;;;20.60;54.90;;;;;;6314033;28;20222;-63
2023/03/26 13:18:24;;;;;;;9.97;8.93;;;20.10;55.60;;;;;;6310847;28;20700;-64
2023/03/26 13:21:37;;;;;;;23.53;21.63;;;19.70;56.50;;;;;;6313454;28;20229;-65
2023/03/26 13:24:52;;;;;;;3.87;3.57;;;19.60;57.00;;;;;;6316305;28;20548;-64
2023/03/26 13:28:08;;;;;;;3.90;3.60;;;19.50;57.80;;;;;;6314329;28;20226;-65
2023/03/26 13:31:20;;;;;;;4.13;3.83;;;19.90;57.50;;;;;;6311335;28;20234;-65
2023/03/26 13:34:36;;;;;;;6.30;3.17;;;20.00;56.90;;;;;;6310580;28;20302;-65
2023/03/26 13:37:49;;;;;;;3.73;3.40;;;20.10;56.90;;;;;;6312366;28;20357;-64
2023/03/26 13:41:04;;;;;;;5.57;4.60;;;20.30;56.60;;;;;;6312993;28;20543;-64
2023/03/26 13:44:17;;;;;;;3.87;3.57;;;20.30;56.60;;;;;;6315900;28;20223;-65
2023/03/26 13:47:25;;;;;;;4.30;3.90;;;20.10;56.50;;;;;;6313658;28;20227;-65
2023/03/26 13:50:34;;;;;;;4.33;3.93;;;19.70;57.10;;;;;;6324747;28;20230;-66
2023/03/26 13:53:43;;;;;;;4.43;4.00;;;19.60;57.50;;;;;;6309012;28;20655;-68
2023/03/26 13:56:54;;;;;;;5.80;5.30;;;19.30;57.90;;;;;;6327164;28;20226;-66
2023/03/26 14:00:04;;;;;;;4.50;4.13;;;18.90;59.10;;;;;;6326624;28;20652;-67
2023/03/26 14:03:19;;;;;;;4.20;3.80;;;18.70;59.50;;;;;;6326560;28;20671;-67
2023/03/26 14:06:35;;;;;;;4.90;3.83;;;18.30;60.50;;;;;;6326318;28;20230;-66
2023/03/26 14:09:44;;;;;;;5.50;3.90;;;18.10;62.20;;;;;;6317353;28;20241;-64
2023/03/26 14:12:56;;;;;;;3.93;3.53;;;17.90;61.40;;;;;;6326181;28;20335;-65
2023/03/26 14:16:06;;;;;;;4.93;3.03;;;17.90;62.40;;;;;;6326534;28;20253;-67
2023/03/26 14:19:25;;;;;;;8.90;8.10;;;17.90;62.70;;;;;;6325442;28;20362;-66
2023/03/26 14:22:41;;;;;;;4.57;4.17;;;17.90;62.90;;;;;;6325695;28;20340;-64
2023/03/26 14:26:01;;;;;;;4.27;3.30;;;17.90;63.40;;;;;;6301046;28;20241;-67
2023/03/26 14:29:36;;;;;;;6.07;3.83;;;17.80;63.80;;;;;;6300407;28;20668;-66
2023/03/26 14:32:54;;;;;;;3.73;3.33;;;17.50;64.80;;;;;;6308430;28;20484;-64
2023/03/26 14:36:03;;;;;;;3.80;3.50;;;17.50;65.40;;;;;;6303506;28;20473;-64
2023/03/26 14:39:30;;;;;;;3.50;3.20;;;17.40;65.60;;;;;;6300498;28;20473;-65
2023/03/26 14:42:41;;;;;;;4.43;4.03;;;17.40;66.10;;;;;;6300799;28;20472;-65
2023/03/26 14:45:57;;;;;;;4.87;4.10;;;17.20;66.30;;;;;;6299757;28;20824;-65
2023/03/26 14:49:20;;;;;;;3.37;3.10;;;17.20;66.80;;;;;;6300154;28;20834;-67
2023/03/26 14:52:31;;;;;;;4.57;3.27;;;17.20;66.80;;;;;;6321104;28;20468;-64
2023/03/26 14:55:55;;;;;;;4.87;4.27;;;17.10;67.30;;;;;;6323789;28;20472;-66
2023/03/26 14:59:46;;;;;;;7.90;7.10;;;17.10;67.70;;;;;;6306051;28;20879;-64
2023/03/26 15:03:33;;;;;;;4.50;4.20;;;17.10;68.60;;;;;;6299983;28;20457;-64
2023/03/26 15:07:18;;;;;;;3.70;3.03;;;17.10;68.80;;;;;;6299797;28;20476;-64
2023/03/26 15:10:54;;;;;;;4.37;3.70;;;17.20;68.80;;;;;;6296747;28;20458;-67
2023/03/26 15:14:33;;;;;;;3.80;3.50;;;17.30;68.60;;;;;;6300220;28;20481;-64
2023/03/26 15:18:15;;;;;;;4.33;3.90;;;17.30;68.80;;;;;;6299937;28;20477;-65
2023/03/26 15:22:04;;;;;;;4.07;3.70;;;17.30;69.00;;;;;;6303272;28;20954;-66
2023/03/26 15:26:03;;;;;;;4.67;4.27;;;17.10;68.90;;;;;;6315115;28;20466;-65
2023/03/26 15:29:52;;;;;;;4.23;3.80;;;17.00;69.20;;;;;;6298650;28;20469;-68
2023/03/26 15:33:23;;;;;;;4.00;3.60;;;16.90;70.00;;;;;;6302481;28;20817;-62
2023/03/26 15:37:10;;;;;;;6.50;3.50;;;16.80;70.60;;;;;;6311531;28;20475;-65
2023/03/26 15:40:36;;;;;;;4.50;4.10;;;16.70;70.90;;;;;;6324610;28;20790;-66
2023/03/26 15:44:18;;;;;;;4.43;3.37;;;16.60;71.40;;;;;;6324598;28;20916;-65
2023/03/26 15:47:54;;;;;;;4.37;3.97;;;16.50;71.80;;;;;;6320694;28;20484;-63
2023/03/26 15:51:21;;;;;;;5.00;3.80;;;16.40;72.20;;;;;;6324251;28;20480;-63
2023/03/26 15:54:30;;;;;;;4.63;3.40;;;16.30;72.50;;;;;;6305568;28;20461;-62
2023/03/26 15:57:39;;;;;;;4.80;4.13;;;16.20;73.50;;;;;;6305812;28;20857;-65
2023/03/26 16:00:55;;;;;;;4.40;3.97;;;16.20;74.00;;;;;;6323910;28;20471;-62
2023/03/26 16:04:16;;;;;;;4.43;4.03;;;16.10;74.60;;;;;;6324348;28;20464;-63
2023/03/26 16:07:45;;;;;;;5.93;4.80;;;16.00;74.90;;;;;;6323864;28;20527;-64
2023/03/26 16:10:56;;;;;;;4.27;3.87;;;15.90;75.40;;;;;;6323774;28;20468;-63
2023/03/26 16:14:16;;;;;;;4.80;4.43;;;15.80;75.90;;;;;;6323579;28;20535;-70
2023/03/26 16:17:23;;;;;;;4.80;4.30;;;15.70;76.60;;;;;;6323536;28;20476;-62
2023/03/26 16:20:33;;;;;;;6.03;5.43;;;15.50;77.50;;;;;;6323888;28;20985;-63
2023/03/26 16:23:54;;;;;;;7.90;6.40;;;15.40;79.70;;;;;;6323657;28;20481;-62
2023/03/26 16:27:28;;;;;;;5.00;4.50;;;15.50;81.70;;;;;;6323274;28;20483;-65
2023/03/26 16:30:34;;;;;;;4.73;3.83;;;15.50;84.20;;;;;;6323612;28;20810;-63
2023/03/26 16:33:45;;;;;;;4.30;2.70;;;15.40;81.00;;;;;;6323438;28;20480;-66
2023/03/26 16:36:52;;;;;;;6.07;5.47;;;15.20;80.00;;;;;;6323543;28;20515;-63
2023/03/26 16:40:36;;;;;;;49.23;30.20;;;15.10;81.00;;;;;;6349499;28;20466;-65
2023/03/26 16:44:12;;;;;;;5.83;2.77;;;14.90;80.80;;;;;;6337151;28;20894;-66
2023/03/26 16:47:26;;;;;;;2.47;2.00;;;14.50;82.00;;;;;;6352912;28;20459;-66
2023/03/26 16:50:42;;;;;;;3.83;2.27;;;14.20;83.20;;;;;;6354251;28;20520;-62